createdAt,value
2019-01-31T00:00:34.688Z,6.62
2019-01-31T00:03:01.992Z,6.61
2019-01-31T00:05:28.761Z,6.62
2019-01-31T00:07:55.696Z,6.56
2019-01-31T00:10:22.422Z,6.52
2019-01-31T00:12:49.424Z,6.45
2019-01-31T00:15:16.047Z,6.47
2019-01-31T00:17:43.100Z,6.41
2019-01-31T00:20:10.140Z,6.37
2019-01-31T00:22:36.941Z,6.36
2019-01-31T00:25:04.418Z,6.45
2019-01-31T00:27:31.134Z,6.49
2019-01-31T00:29:58.117Z,6.42
2019-01-31T00:32:24.858Z,6.45
2019-01-31T00:34:51.665Z,6.37
2019-01-31T00:37:18.548Z,6.21
2019-01-31T00:39:45.421Z,6.12
2019-01-31T00:42:12.181Z,6.24
2019-01-31T00:44:38.786Z,6.36
2019-01-31T00:47:05.642Z,6.33
2019-01-31T00:49:32.703Z,6.33
2019-01-31T00:52:00.657Z,6.28
2019-01-31T00:54:30.309Z,6.27
2019-01-31T00:56:57.769Z,6.29
2019-01-31T00:59:25.393Z,6.16
2019-01-31T01:01:52.889Z,6.20
2019-01-31T01:04:19.870Z,6.17
2019-01-31T01:06:46.793Z,6.01
2019-01-31T01:09:13.440Z,6.03
2019-01-31T01:11:41.584Z,6.08
2019-01-31T01:14:08.225Z,6.22
2019-01-31T01:16:34.849Z,6.30
2019-01-31T01:19:01.634Z,6.34
2019-01-31T01:21:28.412Z,6.38
2019-01-31T01:23:55.154Z,6.45
2019-01-31T01:26:22.002Z,6.45
2019-01-31T01:28:48.877Z,6.40
2019-01-31T01:31:15.799Z,6.39
2019-01-31T01:33:42.404Z,6.46
2019-01-31T01:36:09.083Z,6.59
2019-01-31T01:38:35.671Z,6.44
2019-01-31T01:41:02.709Z,6.46
2019-01-31T01:43:29.413Z,6.54
2019-01-31T01:45:56.093Z,6.42
2019-01-31T01:48:22.773Z,6.40
2019-01-31T01:50:49.717Z,6.23
2019-01-31T01:53:16.708Z,6.28
2019-01-31T01:55:44.137Z,6.40
2019-01-31T01:58:10.879Z,6.26
2019-01-31T02:00:37.531Z,6.29
2019-01-31T02:03:04.223Z,6.21
2019-01-31T02:05:31.559Z,6.12
2019-01-31T02:07:58.592Z,6.18
2019-01-31T02:10:25.663Z,6.01
2019-01-31T02:12:52.519Z,5.93
2019-01-31T02:15:19.475Z,5.84
2019-01-31T02:17:46.296Z,5.75
2019-01-31T02:20:19.513Z,5.64
2019-01-31T02:22:45.087Z,5.50
2019-01-31T02:25:12.031Z,5.29
2019-01-31T02:27:38.951Z,5.38
2019-01-31T02:30:05.863Z,5.48
2019-01-31T02:32:32.550Z,5.38
2019-01-31T02:34:59.479Z,5.42
2019-01-31T02:37:26.314Z,5.49
2019-01-31T02:39:53.318Z,5.58
2019-01-31T02:42:21.791Z,5.55
2019-01-31T02:44:50.511Z,5.49
2019-01-31T02:47:19.209Z,5.39
2019-01-31T02:49:46.173Z,5.43
2019-01-31T02:52:15.066Z,4.95
2019-01-31T02:54:42.287Z,4.60
2019-01-31T02:57:09.064Z,4.50
2019-01-31T02:59:37.573Z,4.63
2019-01-31T03:02:05.197Z,4.81
2019-01-31T03:04:32.649Z,4.82
2019-01-31T03:06:59.352Z,4.96
2019-01-31T03:09:26.201Z,4.99
2019-01-31T03:11:53.468Z,5.04
2019-01-31T03:14:21.282Z,4.92
2019-01-31T03:16:49.286Z,4.79
2019-01-31T03:19:17.805Z,4.82
2019-01-31T03:21:45.727Z,4.68
2019-01-31T03:24:13.231Z,4.91
2019-01-31T03:26:42.081Z,4.84
2019-01-31T03:29:09.977Z,4.84
2019-01-31T03:31:37.546Z,4.83
2019-01-31T03:34:04.959Z,4.73
2019-01-31T03:36:32.047Z,4.58
2019-01-31T03:38:58.917Z,4.55
2019-01-31T03:41:26.376Z,4.56
2019-01-31T03:43:53.352Z,4.63
2019-01-31T03:46:20.268Z,4.64
2019-01-31T03:48:47.595Z,4.66
2019-01-31T03:51:15.955Z,4.60
2019-01-31T03:53:42.650Z,4.45
2019-01-31T03:56:09.447Z,4.48
2019-01-31T03:58:36.497Z,4.50
2019-01-31T04:01:03.616Z,4.46
2019-01-31T04:03:32.555Z,4.43
2019-01-31T04:05:59.773Z,4.43
2019-01-31T04:11:02.080Z,4.51
2019-01-31T04:13:28.961Z,4.50
2019-01-31T04:15:55.752Z,4.50
2019-01-31T04:18:22.753Z,4.38
2019-01-31T04:20:51.139Z,4.19
2019-01-31T04:23:17.967Z,4.11
2019-01-31T04:25:46.071Z,4.15
2019-01-31T04:28:12.849Z,4.18
2019-01-31T04:30:40.128Z,4.29
2019-01-31T04:33:06.968Z,4.27
2019-01-31T04:35:33.883Z,4.19
2019-01-31T04:38:00.800Z,4.10
2019-01-31T04:40:31.571Z,4.08
2019-01-31T04:42:55.995Z,4.03
2019-01-31T04:45:22.940Z,4.05
2019-01-31T04:47:49.592Z,4.09
2019-01-31T04:50:16.474Z,4.01
2019-01-31T04:52:43.195Z,3.86
2019-01-31T04:55:10.134Z,3.94
2019-01-31T04:57:37.041Z,4.02
2019-01-31T05:00:03.744Z,3.95
2019-01-31T05:02:30.379Z,3.89
2019-01-31T05:04:57.145Z,3.90
2019-01-31T05:07:24.384Z,3.83
2019-01-31T05:09:51.264Z,3.80
2019-01-31T05:12:18.589Z,3.75
2019-01-31T05:14:46.672Z,3.68
2019-01-31T05:17:13.606Z,3.72
2019-01-31T05:19:40.488Z,3.64
2019-01-31T05:22:07.357Z,3.68
2019-01-31T05:24:34.258Z,3.69
2019-01-31T05:27:00.855Z,3.65
2019-01-31T05:29:27.473Z,3.60
2019-01-31T05:31:54.126Z,3.64
2019-01-31T05:34:20.800Z,3.63
2019-01-31T05:36:47.464Z,3.51
2019-01-31T05:39:14.193Z,3.25
2019-01-31T05:41:40.900Z,3.16
2019-01-31T05:44:07.666Z,3.11
2019-01-31T05:46:35.570Z,3.09
2019-01-31T05:49:02.258Z,3.15
2019-01-31T05:51:28.971Z,3.37
2019-01-31T05:53:55.994Z,3.29
2019-01-31T05:56:23.033Z,3.22
2019-01-31T05:58:49.780Z,3.13
2019-01-31T06:01:17.282Z,3.11
2019-01-31T06:03:43.947Z,3.12
2019-01-31T06:06:11.477Z,3.11
2019-01-31T06:08:39.126Z,3.18
2019-01-31T06:11:07.626Z,3.19
2019-01-31T06:13:34.443Z,3.13
2019-01-31T06:16:01.092Z,3.08
2019-01-31T06:18:27.994Z,3.13
2019-01-31T06:20:54.638Z,3.32
2019-01-31T06:23:21.257Z,3.21
2019-01-31T06:25:52.577Z,3.07
2019-01-31T06:28:22.824Z,2.94
2019-01-31T06:30:50.906Z,2.95
2019-01-31T06:33:28.207Z,2.92
2019-01-31T06:38:38.441Z,2.93
2019-01-31T06:41:05.504Z,2.98
2019-01-31T06:43:32.499Z,2.84
2019-01-31T06:45:59.845Z,2.93
2019-01-31T06:48:34.157Z,2.96
2019-01-31T06:50:56.180Z,2.97
2019-01-31T06:53:25.063Z,2.90
2019-01-31T06:55:51.954Z,2.97
2019-01-31T06:58:18.712Z,2.90
2019-01-31T07:00:45.759Z,2.95
2019-01-31T07:03:13.037Z,2.97
2019-01-31T07:05:39.765Z,2.87
2019-01-31T07:08:07.098Z,2.81
2019-01-31T07:10:35.380Z,2.88
2019-01-31T07:13:02.125Z,2.87
2019-01-31T07:15:29.623Z,2.98
2019-01-31T07:17:57.095Z,3.09
2019-01-31T07:20:24.013Z,3.26
2019-01-31T07:22:51.114Z,3.26
2019-01-31T07:25:18.473Z,3.33
2019-01-31T07:27:45.181Z,3.41
2019-01-31T07:30:12.293Z,3.35
2019-01-31T07:32:39.321Z,3.50
2019-01-31T07:35:06.904Z,3.65
2019-01-31T07:37:33.542Z,3.61
2019-01-31T07:40:00.983Z,3.98
2019-01-31T07:42:31.495Z,4.08
2019-01-31T07:44:58.291Z,4.16
2019-01-31T07:47:25.297Z,4.26
2019-01-31T07:49:53.099Z,4.40
2019-01-31T07:52:21.152Z,4.48
2019-01-31T07:54:48.751Z,4.36
2019-01-31T07:57:15.675Z,4.40
2019-01-31T07:59:43.517Z,4.36
2019-01-31T08:02:11.777Z,4.29
2019-01-31T08:04:45.828Z,4.40
2019-01-31T08:07:12.446Z,4.50
2019-01-31T08:09:39.540Z,4.34
2019-01-31T08:12:06.493Z,4.38
2019-01-31T08:14:33.444Z,4.68
2019-01-31T08:17:00.169Z,4.82
2019-01-31T08:19:26.763Z,4.98
2019-01-31T08:21:53.556Z,5.11
2019-01-31T08:24:20.520Z,5.39
2019-01-31T08:26:48.722Z,5.32
2019-01-31T08:29:15.686Z,5.43
2019-01-31T08:31:42.441Z,5.38
2019-01-31T08:34:09.166Z,5.25
2019-01-31T08:36:35.806Z,5.38
2019-01-31T08:39:02.776Z,5.36
2019-01-31T08:41:29.508Z,5.45
2019-01-31T08:43:56.519Z,5.60
2019-01-31T08:46:23.376Z,5.74
2019-01-31T08:48:50.232Z,5.58
2019-01-31T08:51:17.058Z,5.50
2019-01-31T08:53:43.994Z,5.62
2019-01-31T08:56:10.712Z,5.57
2019-01-31T08:58:37.419Z,5.73
2019-01-31T09:01:04.178Z,5.62
2019-01-31T09:03:31.251Z,5.57
2019-01-31T09:05:58.168Z,5.82
2019-01-31T09:08:24.816Z,5.84
2019-01-31T09:10:51.426Z,6.04
2019-01-31T09:13:19.797Z,6.10
2019-01-31T09:15:46.492Z,6.12
2019-01-31T09:18:13.329Z,6.16
2019-01-31T09:20:40.056Z,6.15
2019-01-31T09:23:07.260Z,6.23
2019-01-31T09:25:33.915Z,6.42
2019-01-31T09:28:00.731Z,6.39
2019-01-31T09:30:27.652Z,6.33
2019-01-31T09:32:54.554Z,6.44
2019-01-31T09:35:21.452Z,6.56
2019-01-31T09:37:49.493Z,6.39
2019-01-31T09:40:41.628Z,6.35
2019-01-31T09:43:08.325Z,6.30
2019-01-31T09:45:35.418Z,6.44
2019-01-31T09:48:02.087Z,6.56
2019-01-31T09:50:28.928Z,6.50
2019-01-31T09:52:56.374Z,6.60
2019-01-31T09:55:23.071Z,6.80
2019-01-31T09:57:50.380Z,7.00
2019-01-31T10:00:27.226Z,7.05
2019-01-31T10:02:45.404Z,7.05
2019-01-31T10:05:12.164Z,7.02
2019-01-31T10:07:39.150Z,6.99
2019-01-31T10:10:06.257Z,7.37
2019-01-31T10:12:38.213Z,7.47
2019-01-31T10:15:01.680Z,7.48
2019-01-31T10:17:28.388Z,7.25
2019-01-31T10:19:55.771Z,7.16
2019-01-31T10:22:22.521Z,7.28
2019-01-31T10:24:50.942Z,7.45
2019-01-31T10:27:17.595Z,7.28
2019-01-31T10:29:44.380Z,7.40
2019-01-31T10:32:11.039Z,7.75
2019-01-31T10:34:37.696Z,7.76
2019-01-31T10:37:04.527Z,8.00
2019-01-31T10:42:04.059Z,8.16
2019-01-31T10:44:33.667Z,8.25
2019-01-31T10:47:01.880Z,8.26
2019-01-31T10:49:31.028Z,8.63
2019-01-31T10:51:58.303Z,8.61
2019-01-31T10:54:25.272Z,8.47
2019-01-31T10:56:51.979Z,8.59
2019-01-31T10:59:21.649Z,8.53
2019-01-31T11:01:48.284Z,8.69
2019-01-31T11:04:14.929Z,8.55
2019-01-31T11:06:41.821Z,8.22
2019-01-31T11:09:08.485Z,8.04
2019-01-31T11:11:35.532Z,8.19
2019-01-31T11:14:02.152Z,8.42
2019-01-31T11:16:29.282Z,8.66
2019-01-31T11:18:56.081Z,8.74
2019-01-31T11:21:22.754Z,8.80
2019-01-31T11:23:50.649Z,8.62
2019-01-31T11:26:17.371Z,8.29
2019-01-31T11:28:44.282Z,8.03
2019-01-31T11:31:11.199Z,8.26
2019-01-31T11:33:38.118Z,8.25
2019-01-31T11:36:04.747Z,8.40
2019-01-31T11:38:31.408Z,8.19
2019-01-31T11:40:58.434Z,8.18
2019-01-31T11:43:25.326Z,8.20
2019-01-31T11:45:52.077Z,8.34
2019-01-31T11:48:18.832Z,8.13
2019-01-31T11:50:45.572Z,8.07
2019-01-31T11:53:12.548Z,8.30
2019-01-31T11:55:39.767Z,8.66
2019-01-31T11:58:06.610Z,8.36
2019-01-31T12:00:33.576Z,8.46
2019-01-31T12:03:00.641Z,8.76
2019-01-31T12:05:27.248Z,8.65
2019-01-31T12:07:53.848Z,8.45
2019-01-31T12:10:22.312Z,8.45
2019-01-31T12:12:48.892Z,8.23
2019-01-31T12:15:15.854Z,8.26
2019-01-31T12:17:42.784Z,8.58
2019-01-31T12:20:09.693Z,8.63
2019-01-31T12:22:36.470Z,8.58
2019-01-31T12:25:03.424Z,8.47
2019-01-31T12:27:30.178Z,8.61
2019-01-31T12:29:57.069Z,8.90
2019-01-31T12:32:24.127Z,9.02
2019-01-31T12:34:52.595Z,9.34
2019-01-31T12:37:19.288Z,9.39
2019-01-31T12:39:52.670Z,9.20
2019-01-31T12:42:16.888Z,8.90
2019-01-31T12:44:43.507Z,8.80
2019-01-31T12:47:10.302Z,8.97
2019-01-31T12:49:39.468Z,8.85
2019-01-31T12:52:07.857Z,8.76
2019-01-31T12:54:37.267Z,8.96
2019-01-31T12:57:05.025Z,8.81
2019-01-31T12:59:34.707Z,8.71
2019-01-31T13:02:03.803Z,8.84
2019-01-31T13:04:30.890Z,8.97
2019-01-31T13:07:01.526Z,9.08
2019-01-31T13:09:31.805Z,8.83
2019-01-31T13:12:01.256Z,8.79
2019-01-31T13:14:30.305Z,8.71
2019-01-31T13:16:57.004Z,8.79
2019-01-31T13:19:27.395Z,8.67
2019-01-31T13:21:54.182Z,8.57
2019-01-31T13:24:32.888Z,8.41
2019-01-31T13:27:02.021Z,8.44
2019-01-31T13:29:29.084Z,8.51
2019-01-31T13:31:57.077Z,8.70
2019-01-31T13:34:24.659Z,8.61
2019-01-31T13:36:51.869Z,8.56
2019-01-31T13:39:19.939Z,8.54
2019-01-31T13:41:47.960Z,8.52
2019-01-31T13:44:21.951Z,8.36
2019-01-31T13:46:53.815Z,8.48
2019-01-31T13:49:19.208Z,8.42
2019-01-31T13:51:49.557Z,8.49
2019-01-31T13:57:14.386Z,8.46
2019-01-31T13:59:44.425Z,8.38
2019-01-31T14:02:16.250Z,8.10
2019-01-31T14:07:30.124Z,8.08
2019-01-31T14:09:57.917Z,8.03
2019-01-31T14:12:25.870Z,7.94
2019-01-31T14:14:59.165Z,8.05
2019-01-31T14:17:26.867Z,7.88
2019-01-31T14:19:54.974Z,7.87
2019-01-31T14:22:22.012Z,7.78
2019-01-31T14:24:48.690Z,7.49
2019-01-31T14:27:20.070Z,7.45
2019-01-31T14:29:49.748Z,7.69
2019-01-31T14:35:06.447Z,7.65
2019-01-31T14:37:34.231Z,7.48
2019-01-31T14:40:03.267Z,7.87
2019-01-31T14:42:31.193Z,7.93
2019-01-31T14:45:02.026Z,8.00
2019-01-31T14:47:29.939Z,7.99
2019-01-31T14:50:01.472Z,8.00
2019-01-31T14:52:28.483Z,8.01
2019-01-31T14:54:55.982Z,7.76
2019-01-31T14:57:27.301Z,7.67
2019-01-31T14:59:54.505Z,7.64
2019-01-31T15:02:21.202Z,7.86
2019-01-31T15:04:48.383Z,7.83
2019-01-31T15:07:15.174Z,7.91
2019-01-31T15:09:42.286Z,8.04
2019-01-31T15:12:09.417Z,7.96
2019-01-31T15:14:38.034Z,7.86
2019-01-31T15:17:05.033Z,7.94
2019-01-31T15:19:32.420Z,7.99
2019-01-31T15:21:59.605Z,7.97
2019-01-31T15:24:26.574Z,7.79
2019-01-31T15:26:54.808Z,7.69
2019-01-31T15:29:21.733Z,7.79
2019-01-31T15:31:48.818Z,7.83
2019-01-31T15:34:15.696Z,7.98
2019-01-31T15:36:43.072Z,8.03
2019-01-31T15:39:09.965Z,7.84
2019-01-31T15:41:36.930Z,7.63
2019-01-31T15:44:04.054Z,7.41
2019-01-31T15:46:31.006Z,7.46
2019-01-31T15:48:57.849Z,7.49
2019-01-31T15:51:25.173Z,7.52
2019-01-31T15:53:51.859Z,7.53
2019-01-31T15:56:18.951Z,7.57
2019-01-31T15:58:45.943Z,7.69
2019-01-31T16:01:12.649Z,7.71
2019-01-31T16:03:39.524Z,7.60
2019-01-31T16:06:07.217Z,7.65
2019-01-31T16:08:34.188Z,7.62
2019-01-31T16:11:02.290Z,7.22
2019-01-31T16:13:29.204Z,7.01
2019-01-31T16:15:56.224Z,7.12
2019-01-31T16:18:23.318Z,7.39
2019-01-31T16:20:50.277Z,7.38
2019-01-31T16:23:17.508Z,7.45
2019-01-31T16:25:47.462Z,7.58
2019-01-31T16:28:12.850Z,7.44
2019-01-31T16:30:39.681Z,7.37
2019-01-31T16:33:06.690Z,7.25
2019-01-31T16:35:33.704Z,7.15
2019-01-31T16:38:00.633Z,7.22
2019-01-31T16:40:27.627Z,7.31
2019-01-31T16:42:56.036Z,7.46
2019-01-31T16:45:22.715Z,7.44
2019-01-31T16:47:49.408Z,7.56
2019-01-31T16:50:16.274Z,7.53
2019-01-31T16:52:44.059Z,7.31
2019-01-31T16:55:13.288Z,7.36
2019-01-31T16:57:39.938Z,7.47
2019-01-31T17:00:06.911Z,7.32
2019-01-31T17:02:33.950Z,7.00
2019-01-31T17:05:00.943Z,6.96
2019-01-31T17:07:28.023Z,7.01
2019-01-31T17:09:56.386Z,6.91
2019-01-31T17:12:23.069Z,6.82
2019-01-31T17:14:50.081Z,6.94
2019-01-31T17:17:17.107Z,6.92
2019-01-31T17:19:44.089Z,6.98
2019-01-31T17:22:11.082Z,6.85
2019-01-31T17:24:37.706Z,6.84
2019-01-31T17:27:04.347Z,6.96
2019-01-31T17:29:31.510Z,6.90
2019-01-31T17:31:58.622Z,7.01
2019-01-31T17:34:25.631Z,7.05
2019-01-31T17:36:52.627Z,6.93
2019-01-31T17:39:19.576Z,6.79
2019-01-31T17:41:46.556Z,6.77
2019-01-31T17:44:13.230Z,6.84
2019-01-31T17:46:40.192Z,7.11
2019-01-31T17:49:06.875Z,7.22
2019-01-31T17:51:34.051Z,7.32
2019-01-31T17:54:01.818Z,7.17
2019-01-31T17:56:28.878Z,7.05
2019-01-31T17:58:55.854Z,7.11
2019-01-31T18:01:22.806Z,7.34
2019-01-31T18:03:49.553Z,7.41
2019-01-31T18:06:18.843Z,7.40
2019-01-31T18:08:45.082Z,7.22
2019-01-31T18:11:14.015Z,6.98
2019-01-31T18:13:40.965Z,7.11
2019-01-31T18:16:09.786Z,7.24
2019-01-31T18:18:36.505Z,7.38
2019-01-31T18:21:03.164Z,7.40
2019-01-31T18:23:30.092Z,7.43
2019-01-31T18:25:56.727Z,7.20
2019-01-31T18:28:23.408Z,7.03
2019-01-31T18:30:50.320Z,6.90
2019-01-31T18:33:17.186Z,6.93
2019-01-31T18:35:43.865Z,6.70
2019-01-31T18:38:12.962Z,6.71
2019-01-31T18:40:39.667Z,6.63
2019-01-31T18:43:06.369Z,6.57
2019-01-31T18:45:33.376Z,6.58
2019-01-31T18:48:02.589Z,6.62
2019-01-31T18:50:31.271Z,6.92
2019-01-31T18:52:58.417Z,6.90
2019-01-31T18:55:31.059Z,6.84
2019-01-31T18:58:02.207Z,6.80
2019-01-31T19:00:29.690Z,6.75
2019-01-31T19:02:56.734Z,6.64
2019-01-31T19:05:23.675Z,6.74
2019-01-31T19:07:50.649Z,6.75
2019-01-31T19:10:17.339Z,6.82
2019-01-31T19:12:43.975Z,6.74
2019-01-31T19:15:10.855Z,6.83
2019-01-31T19:17:37.799Z,6.83
2019-01-31T19:20:04.759Z,6.93
2019-01-31T19:25:03.452Z,6.84
2019-01-31T19:27:30.069Z,6.87
2019-01-31T19:29:56.986Z,6.76
2019-01-31T19:32:23.976Z,6.49
2019-01-31T19:34:50.994Z,6.40
2019-01-31T19:37:17.992Z,6.40
2019-01-31T19:39:44.616Z,6.46
2019-01-31T19:42:11.586Z,6.70
2019-01-31T19:44:38.288Z,6.87
2019-01-31T19:47:05.142Z,6.80
2019-01-31T19:49:32.035Z,6.57
2019-01-31T19:51:58.665Z,6.60
2019-01-31T19:54:26.656Z,6.93
2019-01-31T19:56:53.489Z,6.84
2019-01-31T19:59:20.555Z,6.75
2019-01-31T20:01:47.642Z,6.75
2019-01-31T20:04:14.492Z,6.71
2019-01-31T20:06:41.464Z,6.62
2019-01-31T20:09:08.693Z,6.66
2019-01-31T20:11:35.715Z,6.72
2019-01-31T20:14:02.907Z,6.89
2019-01-31T20:16:29.648Z,6.93
2019-01-31T20:18:57.193Z,6.95
2019-01-31T20:21:23.907Z,6.88
2019-01-31T20:23:50.640Z,6.96
2019-01-31T20:26:17.459Z,7.00
2019-01-31T20:28:44.258Z,6.98
2019-01-31T20:31:10.926Z,6.96
2019-01-31T20:33:37.908Z,7.01
2019-01-31T20:36:04.584Z,6.96
2019-01-31T20:38:34.218Z,6.97
2019-01-31T20:41:04.356Z,7.08
2019-01-31T20:43:34.360Z,7.01
2019-01-31T20:46:12.545Z,7.05
2019-01-31T20:48:39.505Z,7.20
2019-01-31T20:51:08.541Z,7.12
2019-01-31T20:53:35.825Z,7.17
2019-01-31T20:56:07.475Z,7.07
2019-01-31T20:58:34.963Z,7.11
2019-01-31T21:03:50.467Z,7.17
2019-01-31T21:06:20.952Z,7.16
2019-01-31T21:08:48.839Z,7.21
2019-01-31T21:11:15.579Z,7.14
2019-01-31T21:13:47.399Z,6.88
2019-01-31T21:16:15.847Z,6.88
2019-01-31T21:18:43.070Z,6.99
2019-01-31T21:21:14.101Z,7.02
2019-01-31T21:23:42.185Z,6.99
2019-01-31T21:26:09.335Z,6.99
2019-01-31T21:28:38.503Z,7.03
2019-01-31T21:31:06.987Z,7.00
2019-01-31T21:33:34.606Z,6.88
2019-01-31T21:36:02.972Z,6.75
2019-01-31T21:38:36.119Z,6.70
2019-01-31T21:41:16.890Z,6.72
2019-01-31T21:43:40.930Z,6.58
2019-01-31T21:46:07.564Z,6.41
2019-01-31T21:48:41.181Z,6.33
2019-01-31T21:51:08.363Z,6.30
2019-01-31T21:53:49.892Z,6.22
2019-01-31T21:56:16.879Z,6.48
2019-01-31T21:58:48.531Z,6.69
2019-01-31T22:01:17.221Z,6.77
2019-01-31T22:03:44.137Z,6.77
2019-01-31T22:06:21.925Z,6.56
2019-01-31T22:08:39.484Z,6.48
2019-01-31T22:11:06.068Z,6.77
2019-01-31T22:13:32.746Z,6.71
2019-01-31T22:16:01.003Z,6.70
2019-01-31T22:18:27.741Z,6.70
2019-01-31T22:20:54.771Z,6.67
2019-01-31T22:23:21.737Z,6.76
2019-01-31T22:25:48.939Z,6.74
2019-01-31T22:28:15.919Z,6.74
2019-01-31T22:30:43.288Z,6.70
2019-01-31T22:33:09.922Z,6.91
2019-01-31T22:35:36.914Z,6.84
2019-01-31T22:38:03.548Z,6.82
2019-01-31T22:40:31.475Z,6.92
2019-01-31T22:42:58.195Z,6.84
2019-01-31T22:45:25.055Z,6.96
2019-01-31T22:47:51.720Z,7.00
2019-01-31T22:50:18.684Z,6.90
2019-01-31T22:52:45.523Z,6.86
2019-01-31T22:55:12.536Z,6.88
2019-01-31T22:57:39.239Z,6.89
2019-01-31T23:00:06.076Z,6.92
2019-01-31T23:02:39.451Z,6.86
2019-01-31T23:05:06.162Z,6.92
2019-01-31T23:07:32.829Z,7.13
2019-01-31T23:09:59.790Z,7.06
2019-01-31T23:14:58.177Z,6.98
2019-01-31T23:17:25.032Z,6.78
2019-01-31T23:19:51.987Z,6.73
2019-01-31T23:22:18.669Z,6.89
2019-01-31T23:24:45.353Z,6.89
2019-01-31T23:27:12.216Z,6.70
2019-01-31T23:29:39.247Z,6.82
2019-01-31T23:32:06.132Z,6.75
2019-01-31T23:34:32.863Z,6.72
2019-01-31T23:36:59.553Z,6.41
2019-01-31T23:39:26.439Z,6.34
2019-01-31T23:41:53.547Z,6.42
2019-01-31T23:44:20.562Z,6.37
2019-01-31T23:46:47.492Z,6.40
2019-01-31T23:49:14.494Z,6.44
2019-01-31T23:51:41.153Z,6.40
2019-01-31T23:54:07.822Z,6.55
2019-01-31T23:56:34.650Z,6.64
2019-01-31T23:59:03.139Z,6.56
